PWSweather.com
Personal Weather Stations
Station Observations
KPAEXPOR2
Wellington Estates, Export, PA 15632

Wellington EstatesExport, PA 15632

Lat: 40.446, Lon: -79.592

Elevation: 1286

Station Type: PWS1000-TD

http://www.westmorelandweather.com

Latest ConditionsUpdated 3:45:02 PM EDT Thursday, Aug 21, 2014
Currently Today's Max Today's Min Today's Average
Temperature 75.0°F23.9°C 75.9°F24.4°C 63.3°F17.4°C 68.5°F20.3°C
Dew Point 70.2°F21.2°C 70.7°F21.5°C 63.3°F17.4°C 66.9°F19.4°C
Winds 6.2 mph S10.0 kmh S 9.2 mph S14.8 kmh S - 3.4 mph 5.5 kmh
Wind Gusts 11.4 mph18.3 kmh 14.5 mph23.3 kmh - -
Humidity 85% 100% 83% 95%
Pressure 30.05 in1017.6 mb 30.09 in1019.0 mb 30.02 in1016.6 mb -
Precipitation - 0.01 in0.3 mm - -
Hour Temp Dew Point Humidity Winds Wind Gusts Pressure Precip Precip Rate Daily Precip Total
03:45 PM 75.0°F23.9°C 70.2°F21.2°C 85% 6.2 mph S10.0 kmh S 11.4 mph18.3 kmh 30.05 in1017.6 mb 0.00 in0.0 mm 0.00 in/hr0.0 mm/hr 0.01 in0.3 mm
03:30 PM 75.4°F24.1°C 70.2°F21.2°C 84% 5.3 mph S8.5 kmh S 9.2 mph14.8 kmh 30.05 in1017.6 mb 0.00 in0.0 mm 0.00 in/hr0.0 mm/hr 0.01 in0.3 mm
03:15 PM 75.9°F24.4°C 70.4°F21.3°C 83% 2.9 mph S4.7 kmh S 4.5 mph7.2 kmh 30.06 in1017.9 mb 0.00 in0.0 mm 0.00 in/hr0.0 mm/hr 0.01 in0.3 mm
03:00 PM 75.9°F24.4°C 70.4°F21.3°C 83% 3.8 mph S6.1 kmh S 5.4 mph8.7 kmh 30.06 in1017.9 mb 0.00 in0.0 mm 0.00 in/hr0.0 mm/hr 0.01 in0.3 mm
02:45 PM 75.2°F24.0°C 70.1°F21.2°C 84% 6.5 mph S10.5 kmh S 8.3 mph13.4 kmh 30.07 in1018.3 mb 0.00 in0.0 mm 0.00 in/hr0.0 mm/hr 0.01 in0.3 mm
02:30 PM 75.0°F23.9°C 70.6°F21.4°C 86% 6.8 mph SSW10.9 kmh SSW 9.8 mph15.8 kmh 30.07 in1018.3 mb 0.00 in0.0 mm 0.00 in/hr0.0 mm/hr 0.01 in0.3 mm
02:15 PM 74.6°F23.7°C 70.2°F21.2°C 86% 6.2 mph SSW10.0 kmh SSW 10.7 mph17.2 kmh 30.07 in1018.3 mb 0.00 in0.0 mm 0.00 in/hr0.0 mm/hr 0.01 in0.3 mm
02:00 PM 73.7°F23.2°C 70.0°F21.1°C 88% 8.5 mph S13.7 kmh S 12.1 mph19.5 kmh 30.07 in1018.3 mb 0.00 in0.0 mm 0.00 in/hr0.0 mm/hr 0.01 in0.3 mm
01:45 PM 74.1°F23.4°C 69.7°F20.9°C 86% 8.6 mph S13.8 kmh S 12.1 mph19.5 kmh 30.07 in1018.3 mb 0.00 in0.0 mm 0.00 in/hr0.0 mm/hr 0.01 in0.3 mm
01:30 PM 74.3°F23.5°C 69.5°F20.8°C 85% 8.5 mph S13.7 kmh S 13.0 mph20.9 kmh 30.07 in1018.3 mb 0.00 in0.0 mm 0.00 in/hr0.0 mm/hr 0.01 in0.3 mm
01:15 PM 73.4°F23.0°C 70.0°F21.1°C 89% 5.8 mph S9.3 kmh S 7.6 mph12.2 kmh 30.08 in1018.6 mb 0.00 in0.0 mm 0.00 in/hr0.0 mm/hr 0.01 in0.3 mm
01:00 PM 72.7°F22.6°C 69.3°F20.7°C 89% 6.1 mph S9.8 kmh S 9.8 mph15.8 kmh 30.08 in1018.6 mb 0.00 in0.0 mm 0.00 in/hr0.0 mm/hr 0.01 in0.3 mm
12:45 PM 73.2°F22.9°C 69.8°F21.0°C 89% 5.8 mph S9.3 kmh S 7.6 mph12.2 kmh 30.08 in1018.6 mb 0.00 in0.0 mm 0.00 in/hr0.0 mm/hr 0.01 in0.3 mm
12:30 PM 73.2°F22.9°C 70.1°F21.2°C 90% 7.9 mph S12.7 kmh S 9.8 mph15.8 kmh 30.09 in1019.0 mb 0.00 in0.0 mm 0.00 in/hr0.0 mm/hr 0.01 in0.3 mm
12:15 PM 72.5°F22.5°C 69.1°F20.6°C 89% 6.7 mph S10.8 kmh S 12.1 mph19.5 kmh 30.09 in1019.0 mb 0.00 in0.0 mm 0.00 in/hr0.0 mm/hr 0.01 in0.3 mm
12:00 PM 72.5°F22.5°C 69.1°F20.6°C 89% 6.4 mph S10.3 kmh S 8.3 mph13.4 kmh 30.09 in1019.0 mb 0.00 in0.0 mm 0.00 in/hr0.0 mm/hr 0.01 in0.3 mm
11:45 AM 72.1°F22.3°C 68.4°F20.2°C 88% 8.1 mph S13.0 kmh S 9.8 mph15.8 kmh 30.09 in1019.0 mb 0.00 in0.0 mm 0.00 in/hr0.0 mm/hr 0.01 in0.3 mm
11:30 AM 71.9°F22.2°C 68.6°F20.3°C 89% 7.2 mph S11.6 kmh S 8.3 mph13.4 kmh 30.09 in1019.0 mb 0.00 in0.0 mm 0.00 in/hr0.0 mm/hr 0.01 in0.3 mm
11:15 AM 71.8°F22.1°C 68.7°F20.4°C 90% 6.6 mph S10.6 kmh S 8.3 mph13.4 kmh 30.09 in1019.0 mb 0.00 in0.0 mm 0.00 in/hr0.0 mm/hr 0.01 in0.3 mm
11:00 AM 71.4°F21.9°C 68.4°F20.2°C 90% 7.7 mph S12.4 kmh S 10.7 mph17.2 kmh 30.09 in1019.0 mb 0.00 in0.0 mm 0.00 in/hr0.0 mm/hr 0.01 in0.3 mm
10:45 AM 71.8°F22.1°C 69.0°F20.6°C 91% 6.2 mph S10.0 kmh S 10.7 mph17.2 kmh 30.09 in1019.0 mb 0.00 in0.0 mm 0.00 in/hr0.0 mm/hr 0.01 in0.3 mm
10:30 AM 71.4°F21.9°C 68.4°F20.2°C 90% 6.5 mph SSW10.5 kmh SSW 10.7 mph17.2 kmh 30.09 in1019.0 mb 0.00 in0.0 mm 0.00 in/hr0.0 mm/hr 0.01 in0.3 mm
10:15 AM 72.1°F22.3°C 68.7°F20.4°C 89% 9.2 mph S14.8 kmh S 14.5 mph23.3 kmh 30.08 in1018.6 mb 0.00 in0.0 mm 0.00 in/hr0.0 mm/hr 0.01 in0.3 mm
10:00 AM 73.0°F22.8°C 69.6°F20.9°C 89% 6.8 mph S10.9 kmh S 10.7 mph17.2 kmh 30.08 in1018.6 mb 0.00 in0.0 mm 0.00 in/hr0.0 mm/hr 0.01 in0.3 mm
09:45 AM 72.5°F22.5°C 70.7°F21.5°C 94% 6.6 mph S10.6 kmh S 10.7 mph17.2 kmh 30.08 in1018.6 mb 0.00 in0.0 mm 0.00 in/hr0.0 mm/hr 0.01 in0.3 mm
09:15 AM 70.3°F21.3°C 70.1°F21.2°C 99% 5.8 mph S9.3 kmh S 8.3 mph13.4 kmh 30.08 in1018.6 mb 0.00 in0.0 mm 0.00 in/hr0.0 mm/hr 0.01 in0.3 mm
09:00 AM 69.1°F20.6°C 69.1°F20.6°C 100% 4.9 mph SSW7.9 kmh SSW 7.6 mph12.2 kmh 30.07 in1018.3 mb 0.00 in0.0 mm 0.00 in/hr0.0 mm/hr 0.01 in0.3 mm
08:45 AM 68.0°F20.0°C 68.0°F20.0°C 100% 4.2 mph S6.8 kmh S 6.9 mph11.1 kmh 30.06 in1017.9 mb 0.00 in0.0 mm 0.00 in/hr0.0 mm/hr 0.01 in0.3 mm
08:30 AM 66.9°F19.4°C 66.9°F19.4°C 100% 6.3 mph S10.1 kmh S 7.6 mph12.2 kmh 30.07 in1018.3 mb 0.00 in0.0 mm 0.00 in/hr0.0 mm/hr 0.01 in0.3 mm
08:15 AM 66.4°F19.1°C 66.4°F19.1°C 100% 5.9 mph S9.5 kmh S 7.6 mph12.2 kmh 30.07 in1018.3 mb 0.00 in0.0 mm 0.00 in/hr0.0 mm/hr 0.01 in0.3 mm
08:00 AM 65.8°F18.8°C 65.8°F18.8°C 100% 3.1 mph S5.0 kmh S 6.0 mph9.7 kmh 30.06 in1017.9 mb 0.00 in0.0 mm 0.00 in/hr0.0 mm/hr 0.01 in0.3 mm
07:45 AM 65.3°F18.5°C 65.3°F18.5°C 100% 0.6 mph S1.0 kmh S 1.6 mph2.6 kmh 30.06 in1017.9 mb 0.00 in0.0 mm 0.00 in/hr0.0 mm/hr 0.01 in0.3 mm
07:30 AM 64.6°F18.1°C 64.6°F18.1°C 100% Calm Calm -- 30.05 in1017.6 mb 0.00 in0.0 mm 0.00 in/hr0.0 mm/hr 0.01 in0.3 mm
07:15 AM 63.8°F17.7°C 63.9°F17.7°C 100% Calm Calm -- 30.05 in1017.6 mb 0.00 in0.0 mm 0.00 in/hr0.0 mm/hr 0.01 in0.3 mm
07:00 AM 63.3°F17.4°C 63.3°F17.4°C 100% Calm Calm -- 30.06 in1017.9 mb 0.00 in0.0 mm 0.00 in/hr0.0 mm/hr 0.01 in0.3 mm
06:45 AM 63.3°F17.4°C 63.3°F17.4°C 100% 0.6 mph S1.0 kmh S 2.2 mph3.5 kmh 30.05 in1017.6 mb 0.00 in0.0 mm 0.00 in/hr0.0 mm/hr 0.01 in0.3 mm
06:30 AM 63.7°F17.6°C 63.7°F17.6°C 100% Calm Calm -- 30.05 in1017.6 mb 0.00 in0.0 mm 0.00 in/hr0.0 mm/hr 0.01 in0.3 mm
06:15 AM 63.7°F17.6°C 63.7°F17.6°C 100% Calm Calm -- 30.04 in1017.3 mb 0.00 in0.0 mm 0.00 in/hr0.0 mm/hr 0.01 in0.3 mm
06:00 AM 63.7°F17.6°C 63.7°F17.6°C 100% 0.2 mph NW0.3 kmh NW 0.7 mph1.1 kmh 30.04 in1017.3 mb 0.00 in0.0 mm 0.00 in/hr0.0 mm/hr 0.01 in0.3 mm
05:45 AM 63.8°F17.7°C 63.9°F17.7°C 100% 0.2 mph N0.3 kmh N 1.6 mph2.6 kmh 30.04 in1017.3 mb 0.00 in0.0 mm 0.00 in/hr0.0 mm/hr 0.01 in0.3 mm
05:30 AM 64.0°F17.8°C 64.0°F17.8°C 100% 0.6 mph S1.0 kmh S 1.6 mph2.6 kmh 30.04 in1017.3 mb 0.00 in0.0 mm 0.00 in/hr0.0 mm/hr 0.01 in0.3 mm
05:15 AM 64.0°F17.8°C 64.0°F17.8°C 100% 0.8 mph WNW1.3 kmh WNW 3.1 mph5.0 kmh 30.04 in1017.3 mb 0.00 in0.0 mm 0.00 in/hr0.0 mm/hr 0.01 in0.3 mm
05:00 AM 64.2°F17.9°C 64.2°F17.9°C 100% 0.9 mph W1.4 kmh W 2.2 mph3.5 kmh 30.03 in1016.9 mb 0.00 in0.0 mm 0.00 in/hr0.0 mm/hr 0.01 in0.3 mm
04:45 AM 64.2°F17.9°C 64.2°F17.9°C 100% 1.3 mph NW2.1 kmh NW 2.2 mph3.5 kmh 30.02 in1016.6 mb 0.00 in0.0 mm 0.00 in/hr0.0 mm/hr 0.01 in0.3 mm
04:30 AM 64.2°F17.9°C 64.2°F17.9°C 100% 0.8 mph NW1.3 kmh NW 2.2 mph3.5 kmh 30.02 in1016.6 mb 0.00 in0.0 mm 0.00 in/hr0.0 mm/hr 0.01 in0.3 mm
04:15 AM 64.2°F17.9°C 64.2°F17.9°C 100% 1.2 mph NW1.9 kmh NW 2.2 mph3.5 kmh 30.02 in1016.6 mb 0.00 in0.0 mm 0.00 in/hr0.0 mm/hr 0.01 in0.3 mm
04:00 AM 64.4°F18.0°C 64.4°F18.0°C 100% 1.1 mph NNW1.8 kmh NNW 1.6 mph2.6 kmh 30.02 in1016.6 mb 0.01 in0.3 mm 0.00 in/hr0.0 mm/hr 0.01 in0.3 mm
03:45 AM 64.4°F18.0°C 64.4°F18.0°C 100% 0.7 mph NW1.1 kmh NW 1.6 mph2.6 kmh 30.02 in1016.6 mb 0.01 in0.3 mm 0.00 in/hr0.0 mm/hr 0.01 in0.3 mm
03:30 AM 64.4°F18.0°C 64.4°F18.0°C 100% 1.2 mph NW1.9 kmh NW 2.2 mph3.5 kmh 30.02 in1016.6 mb 0.01 in0.3 mm 0.00 in/hr0.0 mm/hr 0.01 in0.3 mm
03:15 AM 64.6°F18.1°C 64.6°F18.1°C 100% 0.8 mph NW1.3 kmh NW 2.2 mph3.5 kmh 30.03 in1016.9 mb 0.01 in0.3 mm 0.04 in/hr1.0 mm/hr 0.01 in0.3 mm
03:00 AM 64.6°F18.1°C 64.6°F18.1°C 100% 1.0 mph W1.6 kmh W 2.2 mph3.5 kmh 30.03 in1016.9 mb 0.00 in0.0 mm 0.00 in/hr0.0 mm/hr 0.05 in1.3 mm
02:45 AM 64.7°F18.2°C 64.8°F18.2°C 100% 0.5 mph NW0.8 kmh NW 1.6 mph2.6 kmh 30.02 in1016.6 mb 0.00 in0.0 mm 0.00 in/hr0.0 mm/hr 0.05 in1.3 mm
02:30 AM 64.7°F18.2°C 64.8°F18.2°C 100% 1.0 mph NW1.6 kmh NW 1.6 mph2.6 kmh 30.02 in1016.6 mb 0.00 in0.0 mm 0.00 in/hr0.0 mm/hr 0.05 in1.3 mm
02:15 AM 64.9°F18.3°C 64.7°F18.2°C 99% 0.2 mph N0.3 kmh N 0.7 mph1.1 kmh 30.02 in1016.6 mb 0.00 in0.0 mm 0.00 in/hr0.0 mm/hr 0.05 in1.3 mm
02:00 AM 65.3°F18.5°C 65.0°F18.3°C 99% 0.3 mph N0.5 kmh N 1.6 mph2.6 kmh 30.03 in1016.9 mb 0.00 in0.0 mm 0.00 in/hr0.0 mm/hr 0.05 in1.3 mm
01:45 AM 65.5°F18.6°C 65.2°F18.4°C 99% 0.2 mph NW0.3 kmh NW 0.7 mph1.1 kmh 30.03 in1016.9 mb 0.00 in0.0 mm 0.00 in/hr0.0 mm/hr 0.05 in1.3 mm
01:30 AM 65.6°F18.7°C 65.4°F18.6°C 99% Calm Calm -- 30.02 in1016.6 mb 0.00 in0.0 mm 0.00 in/hr0.0 mm/hr 0.05 in1.3 mm
01:15 AM 66.0°F18.9°C 65.7°F18.7°C 99% Calm Calm -- 30.02 in1016.6 mb 0.00 in0.0 mm 0.00 in/hr0.0 mm/hr 0.05 in1.3 mm
01:00 AM 66.4°F19.1°C 65.8°F18.8°C 98% Calm Calm -- 30.02 in1016.6 mb 0.00 in0.0 mm 0.00 in/hr0.0 mm/hr 0.05 in1.3 mm
12:45 AM 66.7°F19.3°C 66.2°F19.0°C 98% 0.5 mph NW0.8 kmh NW 1.6 mph2.6 kmh 30.02 in1016.6 mb 0.00 in0.0 mm 0.00 in/hr0.0 mm/hr 0.05 in1.3 mm
12:30 AM 66.9°F19.4°C 66.3°F19.1°C 98% 0.6 mph SSW1.0 kmh SSW 1.6 mph2.6 kmh 30.03 in1016.9 mb 0.05 in1.3 mm 0.00 in/hr0.0 mm/hr 0.05 in1.3 mm
12:15 AM 67.1°F19.5°C 66.2°F19.0°C 97% 0.9 mph WSW1.4 kmh WSW 2.2 mph3.5 kmh 30.02 in1016.6 mb 0.05 in1.3 mm 0.00 in/hr0.0 mm/hr 0.05 in1.3 mm
12:00 AM 67.4°F19.7°C 66.3°F19.1°C 96% 1.2 mph NW1.9 kmh NW 2.2 mph3.5 kmh 30.02 in1016.6 mb 0.05 in1.3 mm 0.00 in/hr0.0 mm/hr 0.05 in1.3 mm